Time;durP1;ratioP1;P1;durP2;ratioP2;P2;SDS_P1;SDS_P2;PMS_P1;PMS_P2;Temp;Humidity;BMP_temperature;BMP_pressure;BME280_temperature;BME280_humidity;BME280_pressure;Samples;Min_cycle;Max_cycle;Signal;HPM_P1;HPM_P2
2022/07/31 00:00:14;;;;;;;;;;;23.10;68.00;;;;;;5115488;28;20028;-67
2022/07/31 00:02:39;;;;;;;6.97;1.98;;;23.10;68.10;;;;;;5114868;28;19908;-67
2022/07/31 00:05:06;;;;;;;4.25;1.75;;;23.10;68.20;;;;;;5113858;28;20521;-67
2022/07/31 00:07:31;;;;;;;2.80;1.58;;;23.00;67.90;;;;;;5114268;28;20137;-68
2022/07/31 00:09:57;;;;;;;2.58;1.50;;;22.90;68.10;;;;;;5114428;28;20488;-67
2022/07/31 00:12:22;;;;;;;;;;;22.90;68.10;;;;;;5115450;28;20084;-67
2022/07/31 00:14:48;;;;;;;3.00;2.00;;;22.90;68.10;;;;;;5115638;28;19911;-66
2022/07/31 00:17:14;;;;;;;4.95;2.25;;;22.80;68.30;;;;;;5115210;28;20035;-67
2022/07/31 00:19:40;;;;;;;3.72;1.83;;;22.80;68.50;;;;;;5115442;28;20038;-67
2022/07/31 00:22:06;;;;;;;2.53;1.60;;;22.80;68.60;;;;;;5115816;28;20055;-67
2022/07/31 00:24:32;;;;;;;3.85;1.88;;;22.80;68.50;;;;;;5115809;28;20097;-67
2022/07/31 00:26:58;;;;;;;;;;;22.70;68.50;;;;;;5116684;28;20027;-67
2022/07/31 00:29:23;;;;;;;4.82;2.03;;;22.70;68.80;;;;;;5114920;28;19969;-67
2022/07/31 00:31:49;;;;;;;4.40;1.60;;;22.70;69.20;;;;;;5114761;28;20444;-67
2022/07/31 00:34:14;;;;;;;2.78;1.75;;;22.70;69.30;;;;;;5114412;28;20030;-67
2022/07/31 00:36:41;;;;;;;2.58;1.40;;;22.60;70.20;;;;;;5114231;28;20027;-67
2022/07/31 00:39:08;;;;;;;6.13;2.00;;;22.60;69.80;;;;;;5136208;22;20044;-65
2022/07/31 00:41:43;;;;;;;4.43;1.70;;;22.60;70.10;;;;;;5114657;28;20494;-63
2022/07/31 00:44:10;;;;;;;2.55;1.98;;;22.60;70.40;;;;;;5114317;28;20028;-65
2022/07/31 00:46:36;;;;;;;4.50;1.75;;;22.60;70.20;;;;;;5114702;28;20023;-65
2022/07/31 00:49:02;;;;;;;4.47;1.73;;;22.60;71.10;;;;;;5115964;28;20023;-65
2022/07/31 00:51:27;;;;;;;3.95;1.70;;;22.50;70.40;;;;;;5115245;28;20106;-65
2022/07/31 00:53:53;;;;;;;2.53;1.70;;;22.50;70.70;;;;;;5114739;28;20020;-64
2022/07/31 00:56:19;;;;;;;1.90;1.50;;;22.50;70.90;;;;;;5114702;28;20028;-63
2022/07/31 00:58:45;;;;;;;3.35;1.88;;;22.50;71.10;;;;;;5114955;28;20476;-65
2022/07/31 01:01:10;;;;;;;3.67;1.80;;;22.40;71.10;;;;;;5114896;28;20459;-65
2022/07/31 01:03:36;;;;;;;;;;;22.40;71.30;;;;;;5113767;28;20032;-64
2022/07/31 01:06:02;;;;;;;3.47;2.10;;;22.40;71.40;;;;;;5114513;28;20331;-64
2022/07/31 01:08:28;;;;;;;;;;;22.30;71.50;;;;;;5114545;28;20020;-64
2022/07/31 01:10:58;;;;;;;2.92;1.80;;;22.40;72.00;;;;;;5114235;28;19916;-65
2022/07/31 01:13:47;;;;;;;3.90;2.13;;;22.30;72.20;;;;;;5114575;28;20020;-64
2022/07/31 01:16:14;;;;;;;6.10;2.05;;;22.30;72.50;;;;;;5114519;28;20026;-64
2022/07/31 01:18:41;;;;;;;2.53;1.75;;;22.30;72.50;;;;;;5114523;28;20016;-63
2022/07/31 01:21:09;;;;;;;2.22;1.70;;;22.20;72.80;;;;;;5114185;28;20026;-64
2022/07/31 01:23:50;;;;;;;4.25;1.83;;;22.30;73.00;;;;;;5114130;28;20024;-64
2022/07/31 01:26:18;;;;;;;3.13;1.80;;;22.20;73.10;;;;;;5114272;28;20475;-64
2022/07/31 01:29:08;;;;;;;2.90;1.75;;;22.20;73.20;;;;;;5113991;28;20446;-65
2022/07/31 01:31:44;;;;;;;3.00;1.90;;;22.20;73.00;;;;;;5114780;28;20094;-65
2022/07/31 01:34:24;;;;;;;3.53;1.85;;;22.20;73.20;;;;;;5113544;28;20618;-65
2022/07/31 01:37:09;;;;;;;2.33;1.77;;;22.20;73.40;;;;;;5114917;28;20028;-65
2022/07/31 01:39:37;;;;;;;22.00;16.25;;;22.10;73.70;;;;;;5114521;27;20036;-65
2022/07/31 01:42:06;;;;;;;5.38;2.80;;;22.10;73.80;;;;;;5113763;28;20039;-64
2022/07/31 01:44:36;;;;;;;4.18;2.53;;;22.00;74.00;;;;;;5115404;28;20422;-64
2022/07/31 01:47:02;;;;;;;4.45;3.30;;;22.00;74.10;;;;;;5116407;28;20016;-64
2022/07/31 01:49:28;;;;;;;;;;;22.00;75.20;;;;;;5116917;28;20019;-65
2022/07/31 01:51:56;;;;;;;7.73;3.33;;;22.00;76.00;;;;;;5113839;28;20283;-64
2022/07/31 01:54:22;;;;;;;5.43;2.97;;;21.90;77.20;;;;;;5114349;28;20265;-64
2022/07/31 01:56:48;;;;;;;7.07;3.05;;;21.80;78.00;;;;;;5112931;28;20077;-65
2022/07/31 01:59:14;;;;;;;;;;;21.70;78.50;;;;;;5112949;28;20028;-65
2022/07/31 02:01:42;;;;;;;7.32;4.47;;;21.60;79.20;;;;;;5114185;28;19925;-65
2022/07/31 02:04:09;;;;;;;5.93;3.50;;;21.50;79.60;;;;;;5114862;28;20468;-64
2022/07/31 02:06:36;;;;;;;4.45;2.80;;;21.50;80.00;;;;;;5116493;28;20016;-64
2022/07/31 02:09:02;;;;;;;4.88;2.60;;;21.40;80.20;;;;;;5115696;28;20038;-66
2022/07/31 02:11:28;;;;;;;5.80;2.78;;;21.30;80.60;;;;;;5114121;28;20064;-64
2022/07/31 02:13:55;;;;;;;4.95;2.75;;;21.30;81.00;;;;;;5115130;28;20414;-64
2022/07/31 02:16:22;;;;;;;3.47;2.92;;;21.20;81.30;;;;;;5114576;28;20032;-64
2022/07/31 02:18:49;;;;;;;6.13;2.63;;;21.20;81.50;;;;;;5113177;28;20077;-64
2022/07/31 02:21:15;;;;;;;6.03;2.92;;;21.10;81.70;;;;;;5115129;28;20034;-64
2022/07/31 02:23:40;;;;;;;7.20;2.63;;;21.10;81.90;;;;;;5114257;28;20024;-64
2022/07/31 02:26:07;;;;;;;6.18;2.35;;;21.10;81.90;;;;;;5114789;28;20064;-64
2022/07/31 02:28:36;;;;;;;4.25;2.33;;;21.10;81.80;;;;;;5112653;28;20460;-64
2022/07/31 02:31:05;;;;;;;2.80;1.73;;;21.00;81.80;;;;;;5114530;28;20037;-64
2022/07/31 02:33:31;;;;;;;3.15;2.20;;;21.00;81.80;;;;;;5117451;28;20023;-65
2022/07/31 02:35:59;;;;;;;3.90;2.25;;;20.90;82.00;;;;;;5115671;28;20028;-65
2022/07/31 02:38:27;;;;;;;5.25;2.38;;;20.80;82.20;;;;;;5117118;28;20084;-65
2022/07/31 02:40:58;;;;;;;6.97;2.42;;;20.80;82.40;;;;;;5116879;28;20020;-65
2022/07/31 02:43:26;;;;;;;7.78;2.75;;;20.80;82.50;;;;;;5117993;28;20016;-64
2022/07/31 02:45:53;;;;;;;3.63;2.30;;;20.70;82.70;;;;;;5116463;28;20020;-64
2022/07/31 02:48:19;;;;;;;4.18;1.98;;;20.70;82.70;;;;;;5117180;28;20054;-64
2022/07/31 02:50:45;;;;;;;4.53;2.15;;;20.60;82.90;;;;;;5117498;28;20030;-65
2022/07/31 02:53:11;;;;;;;6.05;2.30;;;20.70;82.80;;;;;;5117942;28;20031;-65
2022/07/31 02:55:37;;;;;;;4.18;1.90;;;20.70;83.00;;;;;;5116775;28;20027;-66
2022/07/31 02:58:03;;;;;;;3.10;2.15;;;20.70;82.90;;;;;;5116787;28;20024;-64
2022/07/31 03:00:29;;;;;;;5.30;1.88;;;20.60;83.10;;;;;;5116643;28;20080;-65
2022/07/31 03:02:55;;;;;;;;;;;20.60;83.20;;;;;;5115720;28;20034;-65
2022/07/31 03:05:21;;;;;;;2.55;1.90;;;20.50;83.60;;;;;;5116220;28;19907;-64
2022/07/31 03:07:47;;;;;;;3.72;1.85;;;20.40;83.70;;;;;;5116552;28;20176;-65
2022/07/31 03:10:13;;;;;;;2.13;1.60;;;20.50;84.00;;;;;;5116531;28;20034;-65
2022/07/31 03:12:44;;;;;;;5.60;1.63;;;20.40;83.90;;;;;;5115505;28;20052;-64
2022/07/31 03:15:19;;;;;;;2.67;1.70;;;20.60;83.90;;;;;;5116546;28;20099;-65
2022/07/31 03:17:46;;;;;;;2.45;1.65;;;20.70;83.60;;;;;;5115914;28;20050;-64
2022/07/31 03:20:13;;;;;;;1.77;1.52;;;20.70;83.30;;;;;;5116538;28;20031;-66
2022/07/31 03:22:40;;;;;;;4.30;1.67;;;20.70;83.00;;;;;;5116118;28;20039;-64
2022/07/31 03:25:06;;;;;;;2.40;1.58;;;20.50;83.40;;;;;;5116037;28;20054;-65
2022/07/31 03:27:32;;;;;;;7.45;1.98;;;20.30;83.70;;;;;;5115695;28;20023;-65
2022/07/31 03:29:58;;;;;;;4.45;1.88;;;20.20;84.30;;;;;;5117485;28;20433;-66
2022/07/31 03:32:23;;;;;;;4.55;1.65;;;20.20;84.20;;;;;;5116170;28;20059;-65
2022/07/31 03:34:49;;;;;;;3.28;1.75;;;20.10;84.50;;;;;;5115673;28;20098;-66
2022/07/31 03:37:14;;;;;;;3.60;1.85;;;20.00;84.60;;;;;;5115778;28;20110;-66
2022/07/31 03:39:40;;;;;;;2.47;1.58;;;20.00;85.00;;;;;;5115548;28;20076;-65
2022/07/31 03:42:08;;;;;;;4.70;1.80;;;19.80;85.20;;;;;;5115485;28;20032;-65
2022/07/31 03:44:35;;;;;;;2.25;1.60;;;19.80;85.60;;;;;;5114082;28;20027;-64
2022/07/31 03:47:01;;;;;;;1.63;1.50;;;19.80;85.80;;;;;;5115276;28;20023;-65
2022/07/31 03:49:27;;;;;;;2.47;1.58;;;19.80;85.70;;;;;;5115473;28;20028;-65
2022/07/31 03:51:53;;;;;;;4.20;1.75;;;19.80;86.10;;;;;;5115995;28;20030;-65
2022/07/31 03:54:18;;;;;;;3.50;2.25;;;19.80;86.40;;;;;;5116398;28;20036;-65
2022/07/31 03:56:47;;;;;;;2.45;1.70;;;19.80;86.70;;;;;;5114002;28;20032;-65
2022/07/31 03:59:14;;;;;;;2.50;1.60;;;19.80;86.80;;;;;;5115609;28;20069;-65
2022/07/31 04:01:40;;;;;;;2.90;1.70;;;19.80;86.90;;;;;;5114114;28;20118;-65
2022/07/31 04:04:06;;;;;;;2.60;1.67;;;19.90;87.20;;;;;;5114971;28;20525;-65
2022/07/31 04:06:32;;;;;;;3.08;1.50;;;20.00;87.10;;;;;;5115217;28;20028;-64
2022/07/31 04:09:00;;;;;;;2.50;1.50;;;20.00;87.00;;;;;;5115056;28;20490;-64
2022/07/31 04:11:26;;;;;;;2.10;1.35;;;20.10;86.70;;;;;;5114162;28;20442;-64
2022/07/31 04:13:52;;;;;;;1.60;1.45;;;20.00;87.10;;;;;;5115272;28;20031;-65
2022/07/31 04:16:18;;;;;;;3.38;1.40;;;20.00;87.30;;;;;;5115428;28;20027;-65
2022/07/31 04:18:44;;;;;;;2.05;1.60;;;20.00;87.20;;;;;;5114833;28;20111;-65
2022/07/31 04:21:09;;;;;;;3.22;1.73;;;20.10;87.30;;;;;;5114934;28;20034;-64
2022/07/31 04:23:35;;;;;;;1.80;1.50;;;20.10;87.10;;;;;;5115152;28;20027;-65
2022/07/31 04:26:00;;;;;;;1.73;1.60;;;20.30;86.70;;;;;;5114905;28;20015;-65
2022/07/31 04:28:26;;;;;;;3.17;1.80;;;20.30;86.50;;;;;;5113379;28;20027;-65
2022/07/31 04:30:52;;;;;;;5.50;1.50;;;20.20;86.80;;;;;;5114662;28;20015;-65
2022/07/31 04:33:17;;;;;;;3.78;1.60;;;20.10;87.10;;;;;;5114459;28;20468;-65
2022/07/31 04:35:43;;;;;;;1.65;1.30;;;20.10;87.30;;;;;;5114727;28;20030;-65
2022/07/31 04:38:10;;;;;;;1.95;1.30;;;20.10;87.20;;;;;;5114492;28;20039;-66
2022/07/31 04:40:36;;;;;;;3.25;1.73;;;20.10;87.50;;;;;;5114482;28;20055;-65
2022/07/31 04:43:02;;;;;;;3.70;1.50;;;20.00;87.90;;;;;;5114418;28;20389;-67
2022/07/31 04:45:27;;;;;;;2.42;1.33;;;20.00;88.20;;;;;;5114359;28;20027;-65
2022/07/31 04:47:53;;;;;;;3.42;1.60;;;20.00;88.60;;;;;;5114571;28;20023;-64
2022/07/31 04:50:18;;;;;;;2.15;1.40;;;19.90;88.80;;;;;;5114291;28;20039;-65
2022/07/31 04:52:44;;;;;;;3.50;1.50;;;19.90;89.00;;;;;;5114410;28;20030;-64
2022/07/31 04:55:10;;;;;;;2.40;1.50;;;20.00;88.90;;;;;;5112736;28;20039;-64
2022/07/31 04:57:35;;;;;;;1.55;1.27;;;20.10;88.60;;;;;;5112886;28;20023;-65
2022/07/31 05:00:01;;;;;;;2.35;1.50;;;20.10;88.50;;;;;;5114321;28;20081;-65
2022/07/31 05:02:27;;;;;;;5.95;1.73;;;20.30;88.30;;;;;;5113389;28;20027;-65
2022/07/31 05:04:53;;;;;;;3.08;1.50;;;20.30;88.30;;;;;;5112702;28;20050;-64
2022/07/31 05:07:18;;;;;;;2.85;1.67;;;20.20;88.10;;;;;;5114025;28;20023;-65
2022/07/31 05:09:44;;;;;;;3.00;1.40;;;20.20;88.00;;;;;;5114096;28;20062;-65
2022/07/31 05:12:09;;;;;;;2.25;1.50;;;20.30;87.80;;;;;;5114189;28;20016;-65
2022/07/31 05:14:35;;;;;;;3.28;1.73;;;20.40;87.30;;;;;;5112588;28;20455;-64
2022/07/31 05:17:00;;;;;;;2.13;1.48;;;20.40;87.00;;;;;;5114034;28;20035;-65
2022/07/31 05:19:28;;;;;;;3.20;1.38;;;20.40;86.80;;;;;;5113809;28;20039;-64
2022/07/31 05:21:55;;;;;;;1.58;1.20;;;20.40;86.80;;;;;;5112616;28;20107;-65
2022/07/31 05:24:22;;;;;;;4.35;1.52;;;20.50;86.80;;;;;;5112733;28;20027;-65
2022/07/31 05:26:47;;;;;;;3.95;1.60;;;20.50;86.70;;;;;;5113667;28;20100;-65
2022/07/31 05:29:13;;;;;;;2.42;1.30;;;20.60;86.40;;;;;;5114089;28;20356;-64
2022/07/31 05:31:39;;;;;;;5.07;1.60;;;20.70;86.40;;;;;;5113607;28;20027;-66
2022/07/31 05:34:04;;;;;;;2.95;1.60;;;20.70;86.10;;;;;;5113668;28;20066;-66
2022/07/31 05:36:30;;;;;;;4.38;1.60;;;20.80;86.30;;;;;;5114288;28;20080;-68
2022/07/31 05:38:55;;;;;;;4.97;1.27;;;21.10;87.70;;;;;;5112822;28;20055;-69
2022/07/31 05:41:21;;;;;;;4.22;1.45;;;21.30;85.90;;;;;;5114162;28;20026;-69
2022/07/31 05:43:47;;;;;;;4.45;1.30;;;21.40;84.80;;;;;;5112357;28;20497;-63
2022/07/31 05:46:16;;;;;;;2.05;1.35;;;21.40;84.50;;;;;;5113801;28;20028;-64
2022/07/31 05:48:44;;;;;;;3.95;1.65;;;21.40;84.40;;;;;;5114256;28;20028;-63
2022/07/31 05:51:12;;;;;;;4.88;1.50;;;21.60;84.20;;;;;;5114534;28;20540;-63
2022/07/31 05:53:39;;;;;;;2.00;1.23;;;21.60;84.00;;;;;;5114205;28;20027;-63
2022/07/31 05:56:05;;;;;;;3.08;1.40;;;21.60;84.10;;;;;;5114209;28;20020;-64
2022/07/31 05:58:32;;;;;;;2.28;1.30;;;21.60;84.30;;;;;;5112484;28;20026;-63
2022/07/31 06:00:58;;;;;;;2.17;1.50;;;21.60;84.20;;;;;;5113924;28;20030;-63
2022/07/31 06:03:26;;;;;;;3.97;2.13;;;21.70;84.20;;;;;;5113345;28;20013;-63
2022/07/31 06:05:52;;;;;;;2.55;1.48;;;21.80;84.10;;;;;;5114806;28;20024;-63
2022/07/31 06:08:18;;;;;;;2.78;1.65;;;21.80;84.10;;;;;;5118371;28;20019;-63
2022/07/31 06:10:44;;;;;;;2.75;1.80;;;21.80;84.50;;;;;;5116888;28;20032;-63
2022/07/31 06:13:11;;;;;;;3.30;1.65;;;21.80;84.40;;;;;;5118072;28;20518;-62
2022/07/31 06:15:37;;;;;;;3.17;1.58;;;21.80;84.70;;;;;;5118837;28;20387;-64
2022/07/31 06:18:03;;;;;;;3.03;1.80;;;21.90;84.50;;;;;;5117379;28;20042;-63
2022/07/31 06:20:29;;;;;;;3.67;1.50;;;21.90;84.90;;;;;;5115893;28;20114;-63
2022/07/31 06:22:55;;;;;;;3.53;1.40;;;21.90;84.90;;;;;;5115927;28;20484;-62
2022/07/31 06:25:21;;;;;;;2.13;1.80;;;22.00;84.80;;;;;;5117320;28;20031;-62
2022/07/31 06:27:46;;;;;;;2.75;1.73;;;22.00;84.60;;;;;;5119166;28;20073;-63
2022/07/31 06:30:13;;;;;;;3.63;1.40;;;22.00;84.70;;;;;;5119164;28;20106;-68
2022/07/31 06:32:38;;;;;;;2.13;1.30;;;22.10;84.90;;;;;;5118178;28;20387;-62
2022/07/31 06:35:05;;;;;;;5.03;1.80;;;22.10;84.90;;;;;;5118364;28;20020;-64
2022/07/31 06:37:31;;;;;;;1.90;1.60;;;22.30;84.80;;;;;;5117492;28;20092;-59
2022/07/31 06:39:56;;;;;;;3.40;1.70;;;22.40;84.50;;;;;;5125392;22;20048;-66
2022/07/31 06:42:22;;;;;;;;;;;22.50;84.50;;;;;;5078661;28;20088;-67
2022/07/31 06:44:48;;;;;;;4.88;2.25;;;22.60;84.00;;;;;;5096317;28;20292;-67
2022/07/31 06:47:14;;;;;;;3.15;1.45;;;22.70;83.90;;;;;;5096516;28;20074;-67
2022/07/31 06:49:40;;;;;;;2.53;1.92;;;22.70;83.90;;;;;;5096250;28;20029;-68
2022/07/31 06:52:06;;;;;;;2.63;1.80;;;22.70;84.00;;;;;;5096240;28;20031;-67
2022/07/31 06:54:31;;;;;;;4.10;1.63;;;22.80;84.10;;;;;;5077787;28;20154;-67
2022/07/31 06:56:57;;;;;;;3.75;1.90;;;22.80;83.90;;;;;;5077588;28;20036;-67
2022/07/31 06:59:22;;;;;;;;;;;23.00;83.20;;;;;;5078182;28;20089;-68
2022/07/31 07:01:48;;;;;;;2.10;1.75;;;23.10;83.20;;;;;;5095608;28;19999;-67
2022/07/31 07:04:13;;;;;;;;;;;23.20;83.00;;;;;;5077647;28;20454;-65
2022/07/31 07:06:39;;;;;;;2.00;1.50;;;23.20;82.80;;;;;;5095487;28;20416;-67
2022/07/31 07:09:05;;;;;;;2.28;1.80;;;23.10;83.90;;;;;;5077084;28;20442;-66
2022/07/31 07:11:30;;;;;;;;;;;23.10;83.50;;;;;;5095603;28;20028;-66
2022/07/31 07:13:56;;;;;;;2.95;1.88;;;23.10;83.80;;;;;;5077365;28;19904;-66
2022/07/31 07:16:21;;;;;;;;;;;23.30;83.80;;;;;;5094769;28;20363;-66
2022/07/31 07:18:47;;;;;;;2.22;1.73;;;23.30;84.00;;;;;;5094990;28;19913;-67
2022/07/31 07:21:13;;;;;;;6.82;2.13;;;23.40;83.70;;;;;;5095779;28;20028;-67
2022/07/31 07:23:38;;;;;;;;;;;23.40;84.40;;;;;;5078113;28;20035;-66
2022/07/31 07:26:04;;;;;;;5.75;2.00;;;23.60;83.40;;;;;;5095651;28;20324;-66
2022/07/31 07:28:30;;;;;;;;;;;23.80;82.40;;;;;;5077459;28;20028;-66
2022/07/31 07:30:56;;;;;;;2.97;1.63;;;24.10;81.80;;;;;;5095156;28;19904;-66
2022/07/31 07:33:21;;;;;;;3.30;1.70;;;24.20;81.70;;;;;;5095267;28;20024;-66
2022/07/31 07:35:47;;;;;;;;;;;24.40;80.80;;;;;;5095613;28;20046;-67
2022/07/31 07:38:12;;;;;;;2.33;1.63;;;24.50;80.10;;;;;;5095150;28;19912;-66
2022/07/31 07:40:39;;;;;;;;;;;24.70;79.60;;;;;;5095455;28;20056;-65
2022/07/31 07:43:05;;;;;;;2.33;1.40;;;24.70;79.90;;;;;;5095259;28;19904;-66
2022/07/31 07:45:30;;;;;;;;;;;24.70;80.00;;;;;;5076896;28;20020;-66
2022/07/31 07:47:56;;;;;;;7.45;1.45;;;24.70;79.20;;;;;;5094788;28;20032;-66
2022/07/31 07:50:21;;;;;;;;;;;24.70;79.80;;;;;;5094899;28;20463;-67
2022/07/31 07:52:47;;;;;;;3.45;1.70;;;24.80;79.80;;;;;;5094700;28;19908;-66
2022/07/31 07:55:12;;;;;;;;;;;24.90;79.90;;;;;;5095030;28;20491;-65
2022/07/31 07:57:38;;;;;;;5.00;1.98;;;25.00;79.60;;;;;;5094735;28;19970;-67
2022/07/31 08:00:05;;;;;;;;;;;25.20;78.70;;;;;;5095451;28;20024;-67
2022/07/31 08:02:31;;;;;;;3.20;1.67;;;25.30;77.80;;;;;;5095569;28;19908;-65
2022/07/31 08:04:57;;;;;;;;;;;25.30;77.30;;;;;;5095373;28;20031;-66
2022/07/31 08:07:27;;;;;;;3.47;1.90;;;25.50;76.30;;;;;;5076205;28;20325;-66
2022/07/31 08:09:53;;;;;;;4.00;1.52;;;26.60;75.00;;;;;;5094529;28;20021;-66
2022/07/31 08:12:19;;;;;;;5.43;1.73;;;27.80;72.40;;;;;;5095154;28;20099;-67
2022/07/31 08:14:44;;;;;;;5.03;1.80;;;28.80;70.00;;;;;;5094880;28;20028;-66
2022/07/31 08:17:11;;;;;;;3.58;1.35;;;28.90;68.70;;;;;;5094943;28;20050;-67
2022/07/31 08:19:37;;;;;;;2.05;1.40;;;28.90;67.90;;;;;;5076270;28;20032;-67
2022/07/31 08:22:02;;;;;;;3.63;1.73;;;28.70;68.20;;;;;;5094045;28;20020;-68
2022/07/31 08:24:28;;;;;;;4.40;1.60;;;28.70;68.40;;;;;;5094723;28;20020;-69
2022/07/31 08:29:38;;;;;;;2.58;1.33;;;31.10;65.20;;;;;;5093354;28;20372;-68
2022/07/31 08:32:04;;;;;;;2.67;1.42;;;32.10;63.10;;;;;;5094710;28;20017;-68
2022/07/31 08:34:30;;;;;;;2.63;1.33;;;32.20;61.90;;;;;;5075869;28;20111;-68
2022/07/31 08:36:55;;;;;;;3.00;1.35;;;31.70;62.10;;;;;;5093813;28;20028;-68
2022/07/31 08:39:21;;;;;;;2.65;1.50;;;31.30;61.80;;;;;;5093532;28;20380;-68
2022/07/31 08:41:46;;;;;;;5.30;1.33;;;31.20;62.40;;;;;;5075387;28;20491;-68
2022/07/31 08:44:12;;;;;;;2.47;1.38;;;31.70;62.20;;;;;;5094148;28;20035;-68
2022/07/31 08:46:38;;;;;;;3.63;1.95;;;32.30;61.10;;;;;;5093809;28;20468;-69
2022/07/31 08:49:05;;;;;;;2.88;1.40;;;32.70;59.90;;;;;;5093969;28;20028;-68
2022/07/31 08:51:36;;;;;;;3.55;1.55;;;32.50;60.10;;;;;;5093904;28;20031;-68
2022/07/31 08:54:07;;;;;;;7.60;1.80;;;32.10;59.70;;;;;;5093563;28;20024;-68
2022/07/31 08:56:34;;;;;;;2.67;1.42;;;32.30;61.10;;;;;;5093873;28;20028;-68
2022/07/31 08:59:00;;;;;;;3.33;1.50;;;33.90;58.90;;;;;;5093427;28;20024;-68
2022/07/31 09:01:26;;;;;;;3.33;1.60;;;35.40;56.70;;;;;;5093771;28;20119;-67
2022/07/31 09:03:53;;;;;;;2.65;1.63;;;35.90;55.70;;;;;;5093227;28;20388;-67
2022/07/31 09:06:18;;;;;;;2.55;1.80;;;36.30;55.30;;;;;;5075212;28;20020;-67
2022/07/31 09:08:44;;;;;;;1.63;1.30;;;37.60;54.10;;;;;;5075386;28;20028;-67
2022/07/31 09:11:12;;;;;;;2.33;1.33;;;38.40;53.00;;;;;;5093766;28;20028;-67
2022/07/31 09:13:38;;;;;;;1.30;1.20;;;38.10;52.00;;;;;;5093626;28;20024;-66
2022/07/31 09:16:04;;;;;;;4.93;1.40;;;37.40;52.80;;;;;;5094433;28;20035;-66
2022/07/31 09:18:30;;;;;;;5.28;1.63;;;37.00;53.50;;;;;;5093282;28;20020;-66
2022/07/31 09:21:01;;;;;;;3.92;1.40;;;36.10;53.40;;;;;;5093699;28;20357;-66
2022/07/31 09:23:28;;;;;;;5.10;1.50;;;35.30;54.10;;;;;;5093600;28;20488;-67
2022/07/31 09:25:56;;;;;;;2.85;1.20;;;35.10;54.80;;;;;;5093645;28;20038;-67
2022/07/31 09:28:35;;;;;;;1.80;1.08;;;35.60;55.40;;;;;;5093537;28;20020;-66
2022/07/31 09:31:03;;;;;;;3.95;1.23;;;36.70;53.90;;;;;;5093683;28;20108;-66
2022/07/31 09:33:29;;;;;;;1.85;1.08;;;37.00;53.80;;;;;;5093555;28;20387;-67
2022/07/31 09:35:55;;;;;;;2.80;1.30;;;37.60;53.80;;;;;;5093097;28;20122;-65
2022/07/31 09:38:32;;;;;;;1.88;1.20;;;38.60;52.80;;;;;;5093028;28;20097;-68
2022/07/31 09:41:27;;;;;;;1.70;1.10;;;38.60;52.00;;;;;;5077535;28;20032;-68
2022/07/31 09:44:01;;;;;;;3.47;1.27;;;38.30;51.80;;;;;;4996395;28;20387;-67
2022/07/31 09:46:45;;;;;;;2.20;1.70;;;37.60;51.70;;;;;;4995722;28;20089;-69
2022/07/31 09:49:11;;;;;;;4.93;1.75;;;37.50;52.30;;;;;;4995113;28;20329;-68
2022/07/31 09:51:45;;;;;;;2.67;1.70;;;37.40;52.00;;;;;;4995174;28;20125;-68
2022/07/31 09:54:21;;;;;;;5.35;1.52;;;36.20;52.60;;;;;;4995281;28;20078;-69
2022/07/31 09:56:48;;;;;;;2.25;1.40;;;35.30;54.00;;;;;;4978654;28;20519;-68
2022/07/31 09:59:16;;;;;;;2.00;1.45;;;34.40;54.50;;;;;;4994905;28;20157;-68
2022/07/31 10:01:44;;;;;;;4.18;1.27;;;33.80;55.30;;;;;;4993392;28;20062;-68
2022/07/31 10:04:11;;;;;;;3.00;1.75;;;34.00;56.30;;;;;;4978296;28;20506;-68
2022/07/31 10:06:38;;;;;;;2.95;1.45;;;33.60;56.50;;;;;;4994562;28;20045;-68
2022/07/31 10:09:05;;;;;;;4.47;1.20;;;34.40;55.60;;;;;;4977031;28;20050;-68
2022/07/31 10:11:32;;;;;;;4.13;1.63;;;35.50;54.90;;;;;;4994296;28;20034;-68
2022/07/31 10:14:01;;;;;;;4.90;1.52;;;36.30;55.10;;;;;;4976901;28;20073;-69
2022/07/31 10:16:30;;;;;;;3.90;1.40;;;37.00;53.50;;;;;;4993978;28;20069;-70
2022/07/31 10:18:59;;;;;;;2.55;1.48;;;36.70;53.30;;;;;;4994471;28;20041;-69
2022/07/31 10:21:30;;;;;;;4.32;1.40;;;36.10;53.50;;;;;;5093236;28;20047;-69
2022/07/31 10:23:57;;;;;;;2.28;1.35;;;35.70;54.80;;;;;;5077805;28;20028;-69
2022/07/31 10:26:23;;;;;;;3.90;1.40;;;35.80;54.50;;;;;;5078791;28;20020;-69
2022/07/31 10:28:48;;;;;;;3.50;1.40;;;36.40;53.90;;;;;;5096420;28;20031;-69
2022/07/31 10:31:14;;;;;;;4.22;1.67;;;37.10;53.40;;;;;;5096766;28;20021;-68
2022/07/31 10:33:41;;;;;;;2.88;1.38;;;36.80;53.40;;;;;;5096164;28;20388;-68
2022/07/31 10:36:19;;;;;;;2.42;1.33;;;37.00;53.50;;;;;;5075927;28;20032;-68
2022/07/31 10:38:59;;;;;;;3.47;1.20;;;37.40;52.60;;;;;;5096986;28;20473;-68
2022/07/31 10:41:53;;;;;;;4.32;1.38;;;37.20;52.50;;;;;;5077686;28;20073;-68
2022/07/31 10:44:33;;;;;;;2.58;1.58;;;36.90;53.00;;;;;;4994510;28;20053;-69
2022/07/31 10:46:59;;;;;;;3.42;1.67;;;36.40;53.30;;;;;;4994535;28;20026;-66
2022/07/31 10:49:47;;;;;;;3.40;1.58;;;36.30;53.50;;;;;;4978099;28;20106;-70
2022/07/31 10:52:25;;;;;;;5.57;1.60;;;35.80;53.20;;;;;;4993516;28;20022;-69
2022/07/31 10:54:51;;;;;;;3.50;1.35;;;35.30;53.80;;;;;;4994441;28;20042;-70
2022/07/31 10:57:27;;;;;;;3.70;1.38;;;35.70;53.80;;;;;;4994075;28;20034;-69
2022/07/31 10:59:53;;;;;;;3.30;1.50;;;36.70;52.90;;;;;;4993938;28;20139;-70
2022/07/31 11:02:33;;;;;;;3.88;1.50;;;37.50;52.40;;;;;;4995436;28;20038;-69
2022/07/31 11:05:22;;;;;;;4.63;1.45;;;37.30;52.20;;;;;;4993956;28;20037;-68
2022/07/31 11:08:04;;;;;;;5.50;1.52;;;37.20;52.50;;;;;;4994162;28;20042;-69
2022/07/31 11:10:30;;;;;;;3.60;1.48;;;37.60;52.30;;;;;;4994090;28;20022;-69
2022/07/31 11:13:06;;;;;;;3.40;1.27;;;38.00;52.00;;;;;;4994203;28;20022;-68
2022/07/31 11:15:33;;;;;;;4.93;1.40;;;38.30;51.70;;;;;;4994715;28;20026;-69
2022/07/31 11:18:09;;;;;;;4.30;1.60;;;37.10;52.30;;;;;;4994128;28;20105;-69
2022/07/31 11:20:34;;;;;;;3.63;1.50;;;36.00;53.60;;;;;;5040261;28;20377;-69
2022/07/31 11:23:03;;;;;;;3.97;1.75;;;35.00;54.40;;;;;;5095800;28;20163;-69
2022/07/31 11:25:31;;;;;;;3.83;1.73;;;34.30;55.50;;;;;;5077204;28;20024;-70
2022/07/31 11:28:08;;;;;;;3.90;1.90;;;33.40;56.20;;;;;;5077835;28;20050;-68
2022/07/31 11:30:34;;;;;;;4.93;1.60;;;32.90;57.10;;;;;;5077345;28;20069;-69
2022/07/31 11:33:00;;;;;;;1.52;1.40;;;32.60;57.30;;;;;;5077084;28;20433;-70
2022/07/31 11:35:30;;;;;;;3.53;1.48;;;32.20;57.70;;;;;;5077017;28;20028;-69
2022/07/31 11:37:57;;;;;;;2.90;1.40;;;31.90;58.50;;;;;;5077096;28;20073;-69
2022/07/31 11:40:23;;;;;;;4.60;1.80;;;31.70;58.90;;;;;;5076810;28;20392;-69
2022/07/31 11:42:48;;;;;;;2.17;1.52;;;31.60;59.30;;;;;;5095346;28;20039;-68
2022/07/31 11:45:15;;;;;;;2.08;1.40;;;31.40;58.80;;;;;;5095307;28;20031;-68
2022/07/31 11:47:46;;;;;;;2.78;1.60;;;31.40;59.30;;;;;;5095389;28;20036;-68
2022/07/31 11:50:13;;;;;;;3.85;1.80;;;31.50;59.60;;;;;;5095268;28;20023;-68
2022/07/31 11:52:42;;;;;;;4.43;2.05;;;31.50;59.50;;;;;;5095530;28;20091;-69
2022/07/31 11:55:12;;;;;;;4.80;1.95;;;31.50;60.00;;;;;;5077903;28;20028;-69
2022/07/31 11:57:38;;;;;;;2.35;1.60;;;31.50;60.40;;;;;;5095264;28;20112;-69
2022/07/31 12:00:13;;;;;;;1.95;1.40;;;31.50;59.30;;;;;;5094892;28;20051;-69
2022/07/31 12:02:40;;;;;;;2.58;1.50;;;31.50;59.10;;;;;;5094924;28;20126;-68
2022/07/31 12:05:07;;;;;;;7.15;1.65;;;31.50;59.00;;;;;;5093855;28;20028;-69
2022/07/31 12:07:35;;;;;;;2.17;1.58;;;31.40;58.90;;;;;;5095024;28;20020;-69
2022/07/31 12:10:02;;;;;;;3.08;1.50;;;31.30;59.30;;;;;;5076410;28;20119;-69
2022/07/31 12:12:28;;;;;;;4.00;1.77;;;31.40;59.30;;;;;;5097017;28;20020;-69
2022/07/31 12:14:53;;;;;;;4.85;2.67;;;31.50;59.20;;;;;;5078367;28;20081;-69
2022/07/31 12:17:21;;;;;;;3.45;1.35;;;31.60;59.10;;;;;;5097016;28;20027;-70
2022/07/31 12:19:47;;;;;;;1.85;1.55;;;31.60;58.50;;;;;;5097332;28;20629;-68
2022/07/31 12:22:18;;;;;;;3.17;1.42;;;31.50;58.70;;;;;;5077180;28;20059;-69
2022/07/31 12:24:45;;;;;;;3.15;1.80;;;31.50;59.00;;;;;;5076258;28;20421;-70
2022/07/31 12:27:15;;;;;;;4.18;1.80;;;31.40;59.50;;;;;;5076202;28;20024;-69
2022/07/31 12:29:41;;;;;;;4.68;1.80;;;31.50;58.60;;;;;;5075979;28;20484;-67
2022/07/31 12:32:07;;;;;;;4.88;1.92;;;31.60;58.50;;;;;;5093872;28;20030;-66
2022/07/31 12:34:38;;;;;;;5.25;1.98;;;31.60;58.60;;;;;;5094460;28;20423;-66
2022/07/31 12:37:06;;;;;;;2.08;1.38;;;31.60;58.70;;;;;;5094331;28;20041;-67
2022/07/31 12:39:35;;;;;;;3.40;1.50;;;31.70;59.00;;;;;;5094301;28;20047;-67
2022/07/31 12:42:00;;;;;;;2.55;1.65;;;31.70;58.80;;;;;;5093958;28;20534;-67
2022/07/31 12:44:27;;;;;;;2.67;1.30;;;31.60;58.90;;;;;;5076234;28;20083;-68
2022/07/31 12:46:53;;;;;;;4.22;1.80;;;31.60;59.20;;;;;;5095525;28;20099;-68
2022/07/31 12:49:18;;;;;;;6.57;2.05;;;31.60;59.30;;;;;;5095314;28;20066;-67
2022/07/31 12:51:44;;;;;;;3.25;1.73;;;31.70;59.20;;;;;;5095770;28;20054;-68
2022/07/31 12:54:10;;;;;;;5.60;1.80;;;31.80;59.10;;;;;;5095143;28;20024;-69
2022/07/31 12:56:40;;;;;;;2.70;1.55;;;31.80;59.10;;;;;;5094367;28;20020;-66